Terminal Aerodrome Forecast
Issued by NWS Twin Cities, MN

Home | Current Version | Previous Version | Text Only | Print | Product List | Glossary Off
Versions: 1 2 3 4 5 6 7 8 9 10 11 12 13 14 15 16 17 18 19 20

000
FTUS43 KMPX 160500
TAFSTC
TAF
KSTC 160539Z 1606/1706 35018G25KT 3SM -SN BR OVC014
      TEMPO 1606/1608 1 1/2SM -SN
     FM160900 33020G26KT P6SM OVC012
     FM161800 33015G21KT P6SM OVC022
     FM170100 31011KT P6SM SCT025=

USA.gov is the U.S. government's official web portal to all federal, state and local government web resources and services.